sensor_id;sensor_type;location;lat;lon;timestamp;pressure;altitude;pressure_sealevel;temperature;humidity
23619;BME280;18207;32.078;34.818;2023-12-22T00:01:30;100580.72;;;24.86;35.18
23619;BME280;18207;32.078;34.818;2023-12-22T00:04:02;100589.63;;;24.88;35.24
23619;BME280;18207;32.078;34.818;2023-12-22T00:06:34;100581.19;;;24.88;35.05
23619;BME280;18207;32.078;34.818;2023-12-22T00:09:03;100578.38;;;24.88;35.09
23619;BME280;18207;32.078;34.818;2023-12-22T00:11:33;100580.81;;;24.90;34.83
23619;BME280;18207;32.078;34.818;2023-12-22T00:14:03;100584.44;;;24.90;34.92
23619;BME280;18207;32.078;34.818;2023-12-22T00:16:32;100586.88;;;24.92;35.14
23619;BME280;18207;32.078;34.818;2023-12-22T00:19:04;100590.94;;;24.94;34.93
23619;BME280;18207;32.078;34.818;2023-12-22T00:21:33;100590.94;;;24.94;34.91
23619;BME280;18207;32.078;34.818;2023-12-22T00:24:03;100590.59;;;24.96;35.22
23619;BME280;18207;32.078;34.818;2023-12-22T00:26:33;100592.19;;;24.97;35.07
23619;BME280;18207;32.078;34.818;2023-12-22T00:29:03;100587.84;;;24.99;35.12
23619;BME280;18207;32.078;34.818;2023-12-22T00:31:32;100584.66;;;25.01;35.02
23619;BME280;18207;32.078;34.818;2023-12-22T00:34:04;100589.91;;;25.02;34.67
23619;BME280;18207;32.078;34.818;2023-12-22T00:36:34;100580.28;;;25.03;35.26
23619;BME280;18207;32.078;34.818;2023-12-22T00:39:04;100588.38;;;25.05;35.28
23619;BME280;18207;32.078;34.818;2023-12-22T00:41:33;100596.44;;;25.06;34.62
23619;BME280;18207;32.078;34.818;2023-12-22T00:44:03;100585.19;;;25.06;35.03
23619;BME280;18207;32.078;34.818;2023-12-22T00:46:33;100590.44;;;25.07;34.79
23619;BME280;18207;32.078;34.818;2023-12-22T00:49:05;100585.63;;;25.08;34.88
23619;BME280;18207;32.078;34.818;2023-12-22T00:51:35;100589.25;;;25.08;34.66
23619;BME280;18207;32.078;34.818;2023-12-22T00:54:05;100586.44;;;25.08;34.72
23619;BME280;18207;32.078;34.818;2023-12-22T00:56:34;100580.81;;;25.08;34.71
23619;BME280;18207;32.078;34.818;2023-12-22T00:59:04;100588.44;;;25.08;34.59
23619;BME280;18207;32.078;34.818;2023-12-22T01:01:38;100594.06;;;25.08;34.78
23619;BME280;18207;32.078;34.818;2023-12-22T01:04:10;100588.44;;;25.08;34.71
23619;BME280;18207;32.078;34.818;2023-12-22T01:06:40;100594.88;;;25.08;34.67
23619;BME280;18207;32.078;34.818;2023-12-22T01:09:10;100609.75;;;25.09;34.75
23619;BME280;18207;32.078;34.818;2023-12-22T01:11:40;100597.69;;;25.08;34.41
23619;BME280;18207;32.078;34.818;2023-12-22T01:14:09;100599.69;;;25.08;34.69
23619;BME280;18207;32.078;34.818;2023-12-22T01:16:41;100595.25;;;25.07;34.85
23619;BME280;18207;32.078;34.818;2023-12-22T01:19:12;100596.44;;;25.06;34.60
23619;BME280;18207;32.078;34.818;2023-12-22T01:21:43;100598.44;;;25.06;34.63
23619;BME280;18207;32.078;34.818;2023-12-22T01:24:15;100590.72;;;25.03;34.36
23619;BME280;18207;32.078;34.818;2023-12-22T01:26:45;100589.09;;;25.02;34.62
23619;BME280;18207;32.078;34.818;2023-12-22T01:29:15;100597.09;;;25.00;34.74
23619;BME280;18207;32.078;34.818;2023-12-22T01:31:45;100591.00;;;24.98;34.58
23619;BME280;18207;32.078;34.818;2023-12-22T01:34:17;100597.41;;;24.95;34.78
23619;BME280;18207;32.078;34.818;2023-12-22T01:36:47;100598.91;;;24.92;34.62
23619;BME280;18207;32.078;34.818;2023-12-22T01:39:17;100592.03;;;24.90;34.71
23619;BME280;18207;32.078;34.818;2023-12-22T01:41:47;100589.97;;;24.87;34.46
23619;BME280;18207;32.078;34.818;2023-12-22T01:44:17;100587.91;;;24.84;34.60
23619;BME280;18207;32.078;34.818;2023-12-22T01:46:47;100586.66;;;24.81;34.58
23619;BME280;18207;32.078;34.818;2023-12-22T01:49:21;100591.81;;;24.79;34.24
23619;BME280;18207;32.078;34.818;2023-12-22T01:51:54;100593.38;;;24.77;34.58
23619;BME280;18207;32.078;34.818;2023-12-22T01:54:25;100580.84;;;24.74;34.86
23619;BME280;18207;32.078;34.818;2023-12-22T01:56:55;100578.81;;;24.71;34.23
23619;BME280;18207;32.078;34.818;2023-12-22T01:59:25;100579.97;;;24.70;34.49
23619;BME280;18207;32.078;34.818;2023-12-22T02:01:55;100582.72;;;24.67;34.74
23619;BME280;18207;32.078;34.818;2023-12-22T02:04:28;100571.81;;;24.65;34.32
23619;BME280;18207;32.078;34.818;2023-12-22T02:07:02;100565.31;;;24.61;34.86
23619;BME280;18207;32.078;34.818;2023-12-22T02:09:32;100566.84;;;24.59;34.71
23619;BME280;18207;32.078;34.818;2023-12-22T02:12:02;100564.41;;;24.57;34.54
23619;BME280;18207;32.078;34.818;2023-12-22T02:14:32;100561.16;;;24.55;34.31
23619;BME280;18207;32.078;34.818;2023-12-22T02:17:15;100548.28;;;24.54;34.31
23619;BME280;18207;32.078;34.818;2023-12-22T02:19:53;100551.00;;;24.51;34.26
23619;BME280;18207;32.078;34.818;2023-12-22T02:22:24;100553.38;;;24.49;34.61
23619;BME280;18207;32.078;34.818;2023-12-22T02:24:55;100549.75;;;24.48;34.42
23619;BME280;18207;32.078;34.818;2023-12-22T02:27:34;100550.94;;;24.47;34.73
23619;BME280;18207;32.078;34.818;2023-12-22T02:30:12;100548.50;;;24.46;34.83
23619;BME280;18207;32.078;34.818;2023-12-22T02:32:49;100549.69;;;24.45;34.65
23619;BME280;18207;32.078;34.818;2023-12-22T02:35:23;100543.22;;;24.44;34.43
23619;BME280;18207;32.078;34.818;2023-12-22T02:37:56;100550.00;;;24.43;34.39
23619;BME280;18207;32.078;34.818;2023-12-22T02:40:31;100548.41;;;24.42;34.73
23619;BME280;18207;32.078;34.818;2023-12-22T02:43:02;100548.75;;;24.41;34.36
23619;BME280;18207;32.078;34.818;2023-12-22T02:45:32;100546.31;;;24.39;34.43
23619;BME280;18207;32.078;34.818;2023-12-22T02:48:03;100551.47;;;24.37;34.56
23619;BME280;18207;32.078;34.818;2023-12-22T02:50:33;100553.81;;;24.35;34.28
23619;BME280;18207;32.078;34.818;2023-12-22T02:53:03;100544.16;;;24.33;34.37
23619;BME280;18207;32.078;34.818;2023-12-22T02:55:34;100552.13;;;24.31;34.37
23619;BME280;18207;32.078;34.818;2023-12-22T02:58:04;100547.22;;;24.28;34.33
23619;BME280;18207;32.078;34.818;2023-12-22T03:00:34;100554.41;;;24.25;33.99
23619;BME280;18207;32.078;34.818;2023-12-22T03:03:04;100559.94;;;24.22;34.40
23619;BME280;18207;32.078;34.818;2023-12-22T03:05:33;100551.03;;;24.20;34.10
23619;BME280;18207;32.078;34.818;2023-12-22T03:08:04;100558.22;;;24.17;34.08
23619;BME280;18207;32.078;34.818;2023-12-22T03:10:36;100554.94;;;24.16;34.14
23619;BME280;18207;32.078;34.818;2023-12-22T03:13:06;100560.09;;;24.14;34.09
23619;BME280;18207;32.078;34.818;2023-12-22T03:15:36;100568.09;;;24.12;34.43
23619;BME280;18207;32.078;34.818;2023-12-22T03:18:06;100555.59;;;24.09;33.97
23619;BME280;18207;32.078;34.818;2023-12-22T03:20:36;100567.19;;;24.08;34.30
23619;BME280;18207;32.078;34.818;2023-12-22T03:23:06;100569.53;;;24.06;34.18
23619;BME280;18207;32.078;34.818;2023-12-22T03:25:38;100563.47;;;24.04;33.97
23619;BME280;18207;32.078;34.818;2023-12-22T03:28:07;100568.28;;;24.03;34.18
23619;BME280;18207;32.078;34.818;2023-12-22T03:30:37;100571.47;;;24.02;34.04
23619;BME280;18207;32.078;34.818;2023-12-22T03:33:07;100569.47;;;24.02;34.13
23619;BME280;18207;32.078;34.818;2023-12-22T03:35:37;100576.25;;;24.01;34.11
23619;BME280;18207;32.078;34.818;2023-12-22T03:38:06;100581.06;;;24.01;33.73
23619;BME280;18207;32.078;34.818;2023-12-22T03:40:37;100576.63;;;24.00;34.28
23619;BME280;18207;32.078;34.818;2023-12-22T03:43:07;100586.22;;;23.99;33.75
23619;BME280;18207;32.078;34.818;2023-12-22T03:45:37;100573.34;;;23.98;34.03
23619;BME280;18207;32.078;34.818;2023-12-22T03:48:07;100582.94;;;23.97;33.79
23619;BME280;18207;32.078;34.818;2023-12-22T03:50:36;100581.31;;;23.96;33.53
23619;BME280;18207;32.078;34.818;2023-12-22T03:53:06;100588.09;;;23.95;34.07
23619;BME280;18207;32.078;34.818;2023-12-22T03:55:38;100585.69;;;23.93;33.95
23619;BME280;18207;32.078;34.818;2023-12-22T03:58:07;100586.38;;;23.90;33.67
23619;BME280;18207;32.078;34.818;2023-12-22T04:00:38;100590.75;;;23.88;33.72
23619;BME280;18207;32.078;34.818;2023-12-22T04:03:07;100601.97;;;23.88;33.81
23619;BME280;18207;32.078;34.818;2023-12-22T04:05:37;100597.06;;;23.85;33.99
23619;BME280;18207;32.078;34.818;2023-12-22T04:08:07;100602.25;;;23.83;33.54
23619;BME280;18207;32.078;34.818;2023-12-22T04:10:38;100613.81;;;23.81;33.73
23619;BME280;18207;32.078;34.818;2023-12-22T04:13:08;100600.53;;;23.78;33.78
23619;BME280;18207;32.078;34.818;2023-12-22T04:15:38;100614.09;;;23.76;33.66
23619;BME280;18207;32.078;34.818;2023-12-22T04:18:07;100613.59;;;23.74;33.79
23619;BME280;18207;32.078;34.818;2023-12-22T04:20:37;100607.91;;;23.71;33.43
23619;BME280;18207;32.078;34.818;2023-12-22T04:23:07;100612.25;;;23.68;33.67
23619;BME280;18207;32.078;34.818;2023-12-22T04:25:38;100604.53;;;23.65;33.29
23619;BME280;18207;32.078;34.818;2023-12-22T04:28:08;100612.50;;;23.63;33.51
23619;BME280;18207;32.078;34.818;2023-12-22T04:30:38;100608.44;;;23.61;33.72
23619;BME280;18207;32.078;34.818;2023-12-22T04:33:07;100617.19;;;23.59;33.89
23619;BME280;18207;32.078;34.818;2023-12-22T04:35:37;100606.34;;;23.58;33.26
23619;BME280;18207;32.078;34.818;2023-12-22T04:38:08;100609.13;;;23.58;33.52
23619;BME280;18207;32.078;34.818;2023-12-22T04:40:39;100607.50;;;23.57;33.72
23619;BME280;18207;32.078;34.818;2023-12-22T04:43:09;100622.69;;;23.56;33.67
23619;BME280;18207;32.078;34.818;2023-12-22T04:45:39;100616.28;;;23.55;33.32
23619;BME280;18207;32.078;34.818;2023-12-22T04:48:09;100634.28;;;23.54;33.05
23619;BME280;18207;32.078;34.818;2023-12-22T04:50:38;100626.25;;;23.53;33.33
23619;BME280;18207;32.078;34.818;2023-12-22T04:53:08;100628.22;;;23.52;33.27
23619;BME280;18207;32.078;34.818;2023-12-22T04:55:40;100630.56;;;23.50;33.20
23619;BME280;18207;32.078;34.818;2023-12-22T04:58:10;100640.50;;;23.48;33.21
23619;BME280;18207;32.078;34.818;2023-12-22T05:00:39;100630.47;;;23.47;33.12
23619;BME280;18207;32.078;34.818;2023-12-22T05:03:09;100632.81;;;23.45;33.37
23619;BME280;18207;32.078;34.818;2023-12-22T05:05:39;100633.16;;;23.43;32.84
23619;BME280;18207;32.078;34.818;2023-12-22T05:08:09;100630.75;;;23.42;33.33
23619;BME280;18207;32.078;34.818;2023-12-22T05:10:41;100648.72;;;23.41;33.46
23619;BME280;18207;32.078;34.818;2023-12-22T05:13:11;100653.88;;;23.39;33.12
23619;BME280;18207;32.078;34.818;2023-12-22T05:15:40;100666.28;;;23.38;33.10
23619;BME280;18207;32.078;34.818;2023-12-22T05:18:10;100659.84;;;23.37;33.14
23619;BME280;18207;32.078;34.818;2023-12-22T05:20:40;100657.06;;;23.37;33.10
23619;BME280;18207;32.078;34.818;2023-12-22T05:23:11;100648.97;;;23.36;33.21
23619;BME280;18207;32.078;34.818;2023-12-22T05:25:43;100659.38;;;23.35;32.87
23619;BME280;18207;32.078;34.818;2023-12-22T05:28:13;100659.75;;;23.34;33.09
23619;BME280;18207;32.078;34.818;2023-12-22T05:30:42;100657.28;;;23.32;33.25
23619;BME280;18207;32.078;34.818;2023-12-22T05:33:12;100656.50;;;23.32;33.64
23619;BME280;18207;32.078;34.818;2023-12-22T05:35:42;100643.28;;;23.32;33.26
23619;BME280;18207;32.078;34.818;2023-12-22T05:38:11;100638.81;;;23.31;33.09
23619;BME280;18207;32.078;34.818;2023-12-22T05:40:43;100649.72;;;23.33;33.30
23619;BME280;18207;32.078;34.818;2023-12-22T05:43:13;100644.09;;;23.33;33.26
23619;BME280;18207;32.078;34.818;2023-12-22T05:45:43;100654.47;;;23.32;33.29
23619;BME280;18207;32.078;34.818;2023-12-22T05:48:13;100647.25;;;23.31;32.77
23619;BME280;18207;32.078;34.818;2023-12-22T05:50:43;100648.06;;;23.32;33.38
23619;BME280;18207;32.078;34.818;2023-12-22T05:53:14;100648.41;;;23.30;33.05
23619;BME280;18207;32.078;34.818;2023-12-22T05:55:46;100644.81;;;23.30;33.04
23619;BME280;18207;32.078;34.818;2023-12-22T05:58:16;100649.59;;;23.30;33.23
23619;BME280;18207;32.078;34.818;2023-12-22T06:00:45;100648.78;;;23.29;33.23
23619;BME280;18207;32.078;34.818;2023-12-22T06:03:15;100649.59;;;23.30;32.99
23619;BME280;18207;32.078;34.818;2023-12-22T06:05:47;100651.59;;;23.29;33.22
23619;BME280;18207;32.078;34.818;2023-12-22T06:08:16;100651.59;;;23.29;33.04
23619;BME280;18207;32.078;34.818;2023-12-22T06:10:48;100650.41;;;23.30;33.09
23619;BME280;18207;32.078;34.818;2023-12-22T06:13:18;100657.66;;;23.31;33.55
23619;BME280;18207;32.078;34.818;2023-12-22T06:15:47;100650.50;;;23.33;33.03
23619;BME280;18207;32.078;34.818;2023-12-22T06:18:17;100653.78;;;23.35;33.01
23619;BME280;18207;32.078;34.818;2023-12-22T06:20:46;100642.66;;;23.39;32.99
23619;BME280;18207;32.078;34.818;2023-12-22T06:23:18;100639.63;;;23.44;33.11
23619;BME280;18207;32.078;34.818;2023-12-22T06:25:49;100646.59;;;23.50;33.29
23619;BME280;18207;32.078;34.818;2023-12-22T06:28:19;100629.94;;;23.57;33.21
23619;BME280;18207;32.078;34.818;2023-12-22T06:30:49;100645.00;;;23.64;32.95
23619;BME280;18207;32.078;34.818;2023-12-22T06:33:19;100645.19;;;23.71;33.55
23619;BME280;18207;32.078;34.818;2023-12-22T06:35:49;100642.25;;;23.80;33.29
23619;BME280;18207;32.078;34.818;2023-12-22T06:38:21;100647.72;;;23.88;33.20
23619;BME280;18207;32.078;34.818;2023-12-22T06:40:53;100649.97;;;23.98;32.97
23619;BME280;18207;32.078;34.818;2023-12-22T06:43:23;100651.81;;;24.06;33.19
23619;BME280;18207;32.078;34.818;2023-12-22T06:45:53;100657.22;;;24.15;33.14
23619;BME280;18207;32.078;34.818;2023-12-22T06:48:23;100655.88;;;24.24;33.51
23619;BME280;18207;32.078;34.818;2023-12-22T06:50:54;100659.31;;;24.33;33.16
23619;BME280;18207;32.078;34.818;2023-12-22T06:53:24;100658.31;;;24.41;33.47
23619;BME280;18207;32.078;34.818;2023-12-22T06:55:55;100659.78;;;24.50;33.22
23619;BME280;18207;32.078;34.818;2023-12-22T06:58:25;100658.78;;;24.58;33.15
23619;BME280;18207;32.078;34.818;2023-12-22T07:00:55;100658.22;;;24.68;33.22
23619;BME280;18207;32.078;34.818;2023-12-22T07:03:24;100656.03;;;24.77;33.42
23619;BME280;18207;32.078;34.818;2023-12-22T07:05:54;100659.06;;;24.88;32.89
23619;BME280;18207;32.078;34.818;2023-12-22T07:08:24;100662.50;;;24.97;33.31
23619;BME280;18207;32.078;34.818;2023-12-22T07:10:56;100672.75;;;25.05;32.59
23619;BME280;18207;32.078;34.818;2023-12-22T07:13:26;100666.13;;;25.12;32.90
23619;BME280;18207;32.078;34.818;2023-12-22T07:15:57;100672.34;;;25.21;32.98
23619;BME280;18207;32.078;34.818;2023-12-22T07:18:27;100675.75;;;25.30;32.74
23619;BME280;18207;32.078;34.818;2023-12-22T07:20:59;100675.09;;;25.37;32.82
23619;BME280;18207;32.078;34.818;2023-12-22T07:23:29;100671.63;;;25.43;32.70
23619;BME280;18207;32.078;34.818;2023-12-22T07:26:01;100665.69;;;25.48;32.64
23619;BME280;18207;32.078;34.818;2023-12-22T07:28:32;100669.84;;;25.54;32.47
23619;BME280;18207;32.078;34.818;2023-12-22T07:31:02;100686.41;;;25.59;32.52
23619;BME280;18207;32.078;34.818;2023-12-22T07:33:31;100677.69;;;25.64;32.76
23619;BME280;18207;32.078;34.818;2023-12-22T07:36:01;100678.22;;;25.70;32.30
23619;BME280;18207;32.078;34.818;2023-12-22T07:38:33;100681.88;;;25.74;32.25
23619;BME280;18207;32.078;34.818;2023-12-22T07:41:04;100682.44;;;25.79;32.43
23619;BME280;18207;32.078;34.818;2023-12-22T07:43:34;100679.75;;;25.86;32.62
23619;BME280;18207;32.078;34.818;2023-12-22T07:46:04;100687.16;;;25.94;32.45
23619;BME280;18207;32.078;34.818;2023-12-22T07:48:34;100678.00;;;26.00;32.67
23619;BME280;18207;32.078;34.818;2023-12-22T07:51:04;100680.16;;;26.07;32.58
23619;BME280;18207;32.078;34.818;2023-12-22T07:53:33;100675.03;;;26.12;32.47
23619;BME280;18207;32.078;34.818;2023-12-22T07:56:07;100686.41;;;26.19;32.58
23619;BME280;18207;32.078;34.818;2023-12-22T07:58:39;100674.84;;;26.24;32.40
23619;BME280;18207;32.078;34.818;2023-12-22T08:01:09;100686.63;;;26.30;32.41
23619;BME280;18207;32.078;34.818;2023-12-22T08:03:39;100676.28;;;26.37;32.25
23619;BME280;18207;32.078;34.818;2023-12-22T08:06:09;100678.44;;;26.44;32.09
23619;BME280;18207;32.078;34.818;2023-12-22T08:08:39;100676.94;;;26.50;32.37
23619;BME280;18207;32.078;34.818;2023-12-22T08:11:11;100669.34;;;26.54;32.27
23619;BME280;18207;32.078;34.818;2023-12-22T08:13:40;100663.34;;;26.55;32.27
23619;BME280;18207;32.078;34.818;2023-12-22T08:16:10;100667.78;;;26.56;31.90
23619;BME280;18207;32.078;34.818;2023-12-22T08:18:40;100665.38;;;26.58;32.34
23619;BME280;18207;32.078;34.818;2023-12-22T08:21:10;100668.19;;;26.58;31.91
23619;BME280;18207;32.078;34.818;2023-12-22T08:23:51;100664.59;;;26.58;31.86
23619;BME280;18207;32.078;34.818;2023-12-22T08:26:24;100651.69;;;26.57;31.98
23619;BME280;18207;32.078;34.818;2023-12-22T08:28:54;100654.88;;;26.55;32.03
23619;BME280;18207;32.078;34.818;2023-12-22T08:31:24;100648.00;;;26.53;31.91
23619;BME280;18207;32.078;34.818;2023-12-22T08:33:54;100643.13;;;26.50;31.89
23619;BME280;18207;32.078;34.818;2023-12-22T08:36:24;100639.41;;;26.46;31.83
23619;BME280;18207;32.078;34.818;2023-12-22T08:38:53;100643.41;;;26.45;31.88
23619;BME280;18207;32.078;34.818;2023-12-22T08:41:26;100622.06;;;26.44;31.96
23619;BME280;18207;32.078;34.818;2023-12-22T08:43:56;100629.31;;;26.45;32.20
23619;BME280;18207;32.078;34.818;2023-12-22T08:46:26;100630.94;;;26.46;31.96
23619;BME280;18207;32.078;34.818;2023-12-22T08:48:56;100619.72;;;26.49;32.07
23619;BME280;18207;32.078;34.818;2023-12-22T08:51:25;100616.16;;;26.52;31.92
23619;BME280;18207;32.078;34.818;2023-12-22T08:53:55;100622.69;;;26.56;31.93
23619;BME280;18207;32.078;34.818;2023-12-22T08:56:27;100615.91;;;26.61;32.13
23619;BME280;18207;32.078;34.818;2023-12-22T08:58:57;100615.13;;;26.64;32.17
23619;BME280;18207;32.078;34.818;2023-12-22T09:01:27;100606.75;;;26.67;32.01
23619;BME280;18207;32.078;34.818;2023-12-22T09:03:57;100609.63;;;26.71;32.13
23619;BME280;18207;32.078;34.818;2023-12-22T09:06:27;100607.22;;;26.73;32.01
23619;BME280;18207;32.078;34.818;2023-12-22T09:08:56;100596.75;;;26.73;31.98
23619;BME280;18207;32.078;34.818;2023-12-22T09:11:28;100601.19;;;26.74;32.04
23619;BME280;18207;32.078;34.818;2023-12-22T09:13:57;100604.03;;;26.74;32.16
23619;BME280;18207;32.078;34.818;2023-12-22T09:16:27;100596.75;;;26.73;32.08
23619;BME280;18207;32.078;34.818;2023-12-22T09:18:57;100591.13;;;26.73;32.10
23619;BME280;18207;32.078;34.818;2023-12-22T09:21:27;100583.84;;;26.72;32.26
23619;BME280;18207;32.078;34.818;2023-12-22T09:23:56;100577.81;;;26.74;32.30
23619;BME280;18207;32.078;34.818;2023-12-22T09:26:27;100576.22;;;26.73;32.34
23619;BME280;18207;32.078;34.818;2023-12-22T09:28:57;100585.09;;;26.75;32.40
23619;BME280;18207;32.078;34.818;2023-12-22T09:31:27;100569.00;;;26.75;32.42
23619;BME280;18207;32.078;34.818;2023-12-22T09:33:57;100570.63;;;26.76;32.37
23619;BME280;18207;32.078;34.818;2023-12-22T09:36:27;100587.16;;;26.78;32.39
23619;BME280;18207;32.078;34.818;2023-12-22T09:38:56;100577.09;;;26.80;32.43
23619;BME280;18207;32.078;34.818;2023-12-22T09:41:28;100584.38;;;26.81;32.63
23619;BME280;18207;32.078;34.818;2023-12-22T09:43:59;100568.28;;;26.82;32.61
23619;BME280;18207;32.078;34.818;2023-12-22T09:46:31;100568.69;;;26.83;32.68
23619;BME280;18207;32.078;34.818;2023-12-22T09:49:01;100563.06;;;26.83;32.74
23619;BME280;18207;32.078;34.818;2023-12-22T09:51:33;100570.72;;;26.83;32.45
23619;BME280;18207;32.078;34.818;2023-12-22T09:54:05;100568.28;;;26.82;32.81
23619;BME280;18207;32.078;34.818;2023-12-22T09:56:39;100553.34;;;26.81;32.77
23619;BME280;18207;32.078;34.818;2023-12-22T09:59:12;100555.38;;;26.81;32.97
23619;BME280;18207;32.078;34.818;2023-12-22T10:01:44;100536.38;;;26.78;32.90
23619;BME280;18207;32.078;34.818;2023-12-22T10:04:14;100534.75;;;26.77;33.16
23619;BME280;18207;32.078;34.818;2023-12-22T10:06:46;100537.59;;;26.77;33.00
23619;BME280;18207;32.078;34.818;2023-12-22T10:09:17;100533.53;;;26.74;33.10
23619;BME280;18207;32.078;34.818;2023-12-22T10:11:52;100529.06;;;26.73;32.88
23619;BME280;18207;32.078;34.818;2023-12-22T10:14:23;100527.84;;;26.71;33.10
23619;BME280;18207;32.078;34.818;2023-12-22T10:16:54;100523.41;;;26.70;32.95
23619;BME280;18207;32.078;34.818;2023-12-22T10:19:24;100519.34;;;26.67;33.27
23619;BME280;18207;32.078;34.818;2023-12-22T10:21:54;100532.59;;;26.67;33.27
23619;BME280;18207;32.078;34.818;2023-12-22T10:24:40;100524.97;;;26.67;33.33
23619;BME280;18207;32.078;34.818;2023-12-22T10:27:14;100524.09;;;26.63;33.02
23619;BME280;18207;32.078;34.818;2023-12-22T10:29:44;100510.00;;;26.63;33.50
23619;BME280;18207;32.078;34.818;2023-12-22T10:32:14;100510.41;;;26.62;33.60
23619;BME280;18207;32.078;34.818;2023-12-22T10:34:44;100501.94;;;26.62;33.68
23619;BME280;18207;32.078;34.818;2023-12-22T10:37:14;100511.59;;;26.61;33.51
23619;BME280;18207;32.078;34.818;2023-12-22T10:39:46;100500.69;;;26.59;33.51
23619;BME280;18207;32.078;34.818;2023-12-22T10:42:19;100502.69;;;26.59;33.86
23619;BME280;18207;32.078;34.818;2023-12-22T10:44:49;100497.06;;;26.59;33.74
23619;BME280;18207;32.078;34.818;2023-12-22T10:47:20;100495.44;;;26.58;33.78
23619;BME280;18207;32.078;34.818;2023-12-22T10:49:51;100482.13;;;26.58;33.77
23619;BME280;18207;32.078;34.818;2023-12-22T10:52:21;100494.63;;;26.57;34.06
23619;BME280;18207;32.078;34.818;2023-12-22T10:54:51;100487.38;;;26.56;33.85
23619;BME280;18207;32.078;34.818;2023-12-22T10:57:23;100478.09;;;26.56;33.99
23619;BME280;18207;32.078;34.818;2023-12-22T10:59:56;100469.63;;;26.56;33.83
23619;BME280;18207;32.078;34.818;2023-12-22T11:02:28;100474.47;;;26.55;33.75
23619;BME280;18207;32.078;34.818;2023-12-22T11:05:03;100482.94;;;26.55;33.93
23619;BME280;18207;32.078;34.818;2023-12-22T11:07:35;100488.56;;;26.55;33.97
23619;BME280;18207;32.078;34.818;2023-12-22T11:10:08;100481.28;;;26.54;33.87
23619;BME280;18207;32.078;34.818;2023-12-22T11:12:42;100486.53;;;26.56;34.00
23619;BME280;18207;32.078;34.818;2023-12-22T11:15:14;100487.72;;;26.55;34.21
23619;BME280;18207;32.078;34.818;2023-12-22T11:17:46;100496.19;;;26.55;34.07
23619;BME280;18207;32.078;34.818;2023-12-22T11:20:19;100492.56;;;26.54;33.97
23619;BME280;18207;32.078;34.818;2023-12-22T11:22:52;100491.75;;;26.54;34.09
23619;BME280;18207;32.078;34.818;2023-12-22T11:25:24;100486.50;;;26.52;34.21
23619;BME280;18207;32.078;34.818;2023-12-22T11:28:00;100492.13;;;26.52;34.11
23619;BME280;18207;32.078;34.818;2023-12-22T11:30:31;100485.25;;;26.50;34.04
23619;BME280;18207;32.078;34.818;2023-12-22T11:33:02;100487.25;;;26.49;34.13
23619;BME280;18207;32.078;34.818;2023-12-22T11:35:34;100486.03;;;26.47;34.13
23619;BME280;18207;32.078;34.818;2023-12-22T11:38:06;100482.41;;;26.46;34.39
23619;BME280;18207;32.078;34.818;2023-12-22T11:40:37;100472.31;;;26.45;34.13
23619;BME280;18207;32.078;34.818;2023-12-22T11:43:10;100484.38;;;26.46;34.34
23619;BME280;18207;32.078;34.818;2023-12-22T11:45:42;100490.03;;;26.46;34.21
23619;BME280;18207;32.078;34.818;2023-12-22T11:48:12;100478.75;;;26.46;34.30
23619;BME280;18207;32.078;34.818;2023-12-22T11:50:43;100487.22;;;26.46;34.21
23619;BME280;18207;32.078;34.818;2023-12-22T11:53:20;100489.22;;;26.45;34.17
23619;BME280;18207;32.078;34.818;2023-12-22T11:55:58;100481.53;;;26.42;34.19
23619;BME280;18207;32.078;34.818;2023-12-22T11:58:37;100488.75;;;26.40;34.12
23619;BME280;18207;32.078;34.818;2023-12-22T12:01:10;100473.38;;;26.37;34.31
23619;BME280;18207;32.078;34.818;2023-12-22T12:03:50;100469.31;;;26.35;33.93
23619;BME280;18207;32.078;34.818;2023-12-22T12:06:32;100471.72;;;26.33;34.11
23619;BME280;18207;32.078;34.818;2023-12-22T12:09:06;100483.34;;;26.31;34.18
23619;BME280;18207;32.078;34.818;2023-12-22T12:12:11;100490.19;;;26.30;34.01
23619;BME280;18207;32.078;34.818;2023-12-22T12:14:44;100480.47;;;26.28;33.97
23619;BME280;18207;32.078;34.818;2023-12-22T12:17:19;100487.31;;;26.27;34.19
23619;BME280;18207;32.078;34.818;2023-12-22T12:19:49;100482.88;;;26.26;34.16
23619;BME280;18207;32.078;34.818;2023-12-22T12:22:21;100476.44;;;26.25;34.21
23619;BME280;18207;32.078;34.818;2023-12-22T12:24:53;100480.44;;;26.24;34.18
23619;BME280;18207;32.078;34.818;2023-12-22T12:27:23;100466.34;;;26.24;34.09
23619;BME280;18207;32.078;34.818;2023-12-22T12:29:55;100482.88;;;26.26;34.08
23619;BME280;18207;32.078;34.818;2023-12-22T12:32:28;100469.97;;;26.25;34.27
23619;BME280;18207;32.078;34.818;2023-12-22T12:34:59;100475.59;;;26.25;34.46
23619;BME280;18207;32.078;34.818;2023-12-22T12:37:29;100478.41;;;26.25;34.36
23619;BME280;18207;32.078;34.818;2023-12-22T12:40:02;100485.69;;;26.26;34.47
23619;BME280;18207;32.078;34.818;2023-12-22T12:42:35;100482.06;;;26.25;34.35
23619;BME280;18207;32.078;34.818;2023-12-22T12:45:09;100485.25;;;26.24;34.51
23619;BME280;18207;32.078;34.818;2023-12-22T12:47:39;100476.78;;;26.24;34.56
23619;BME280;18207;32.078;34.818;2023-12-22T12:50:09;100483.66;;;26.23;34.61
23619;BME280;18207;32.078;34.818;2023-12-22T12:52:40;100490.06;;;26.23;34.56
23619;BME280;18207;32.078;34.818;2023-12-22T12:55:11;100488.06;;;26.24;34.34
23619;BME280;18207;32.078;34.818;2023-12-22T12:57:41;100468.34;;;26.24;34.59
23619;BME280;18207;32.078;34.818;2023-12-22T13:00:15;100478.41;;;26.25;34.59